createdAt,value
2022-09-23T00:00:10.000Z,98.28
2022-09-23T00:01:11.000Z,98.08
2022-09-23T00:02:11.000Z,97.87
2022-09-23T00:03:11.000Z,97.77
2022-09-23T00:04:11.000Z,97.77
2022-09-23T00:05:11.000Z,97.91
2022-09-23T00:06:11.000Z,98.02
2022-09-23T00:07:11.000Z,98.12
2022-09-23T00:08:11.000Z,98.33
2022-09-23T00:09:11.000Z,98.54
2022-09-23T00:10:11.000Z,98.64
2022-09-23T00:11:11.000Z,98.95
2022-09-23T00:12:11.000Z,99.05
2022-09-23T00:13:11.000Z,99.16
2022-09-23T00:14:11.000Z,99.26
2022-09-23T00:15:11.000Z,99.63
2022-09-23T00:16:11.000Z,99.73
2022-09-23T00:17:11.000Z,99.73
2022-09-23T00:18:11.000Z,99.73
2022-09-23T00:19:11.000Z,99.63
2022-09-23T00:20:11.000Z,99.73
2022-09-23T00:21:11.000Z,99.73
2022-09-23T00:22:11.000Z,99.84
2022-09-23T00:23:11.000Z,99.84
2022-09-23T00:24:11.000Z,99.94
2022-09-23T00:25:11.000Z,99.99
2022-09-23T00:26:12.000Z,99.99
2022-09-23T00:27:12.000Z,99.99
2022-09-23T00:28:12.000Z,99.99
2022-09-23T00:29:12.000Z,99.99
2022-09-23T00:30:12.000Z,99.99
2022-09-23T00:31:12.000Z,99.99
2022-09-23T00:32:12.000Z,99.99
2022-09-23T00:33:12.000Z,99.99
2022-09-23T00:34:12.000Z,99.99
2022-09-23T00:35:12.000Z,99.99
2022-09-23T00:36:12.000Z,99.99
2022-09-23T00:37:12.000Z,99.99
2022-09-23T00:38:12.000Z,99.99
2022-09-23T00:39:12.000Z,99.99
2022-09-23T00:40:12.000Z,99.99
2022-09-23T00:41:12.000Z,99.99
2022-09-23T00:42:12.000Z,99.99
2022-09-23T00:43:12.000Z,99.99
2022-09-23T00:44:12.000Z,99.94
2022-09-23T00:45:12.000Z,99.94
2022-09-23T00:46:12.000Z,99.88
2022-09-23T00:47:12.000Z,99.88
2022-09-23T00:48:12.000Z,99.88
2022-09-23T00:49:13.000Z,99.78
2022-09-23T00:50:13.000Z,99.68
2022-09-23T00:51:13.000Z,99.57
2022-09-23T00:52:13.000Z,99.47
2022-09-23T00:53:13.000Z,99.26
2022-09-23T00:54:13.000Z,99.16
2022-09-23T00:55:13.000Z,99.05
2022-09-23T00:56:13.000Z,98.95
2022-09-23T00:57:13.000Z,98.95
2022-09-23T00:58:13.000Z,98.95
2022-09-23T00:59:13.000Z,99.05
2022-09-23T01:00:13.000Z,99.16
2022-09-23T01:01:13.000Z,99.26
2022-09-23T01:02:13.000Z,99.26
2022-09-23T01:03:13.000Z,99.26
2022-09-23T01:04:13.000Z,99.37
2022-09-23T01:05:13.000Z,99.57
2022-09-23T01:06:13.000Z,99.72
2022-09-23T01:07:13.000Z,99.88
2022-09-23T01:08:13.000Z,99.99
2022-09-23T01:09:13.000Z,99.99
2022-09-23T01:10:13.000Z,99.99
2022-09-23T01:11:13.000Z,99.99
2022-09-23T01:12:13.000Z,99.99
2022-09-23T01:13:14.000Z,99.88
2022-09-23T01:14:14.000Z,99.99
2022-09-23T01:15:14.000Z,99.99
2022-09-23T01:16:14.000Z,99.99
2022-09-23T01:17:14.000Z,99.99
2022-09-23T01:18:14.000Z,99.99
2022-09-23T01:19:14.000Z,99.99
2022-09-23T01:20:14.000Z,99.99
2022-09-23T01:21:14.000Z,99.99
2022-09-23T01:22:14.000Z,99.99
2022-09-23T01:23:14.000Z,99.99
2022-09-23T01:24:14.000Z,99.99
2022-09-23T01:25:14.000Z,99.99
2022-09-23T01:26:14.000Z,99.99
2022-09-23T01:27:14.000Z,99.99
2022-09-23T01:28:14.000Z,99.99
2022-09-23T01:29:14.000Z,99.99
2022-09-23T01:30:14.000Z,99.99
2022-09-23T01:31:14.000Z,99.99
2022-09-23T01:32:14.000Z,99.99
2022-09-23T01:33:14.000Z,99.93
2022-09-23T01:34:14.000Z,99.93
2022-09-23T01:35:14.000Z,99.82
2022-09-23T01:36:15.000Z,99.82
2022-09-23T01:37:15.000Z,99.72
2022-09-23T01:38:15.000Z,99.72
2022-09-23T01:39:15.000Z,99.72
2022-09-23T01:40:15.000Z,99.82
2022-09-23T01:41:15.000Z,99.82
2022-09-23T01:42:15.000Z,99.82
2022-09-23T01:43:15.000Z,99.82
2022-09-23T01:44:15.000Z,99.82
2022-09-23T01:45:15.000Z,99.82
2022-09-23T01:46:15.000Z,99.93
2022-09-23T01:47:15.000Z,99.99
2022-09-23T01:48:15.000Z,99.93
2022-09-23T01:49:15.000Z,99.93
2022-09-23T01:50:15.000Z,99.82
2022-09-23T01:51:15.000Z,99.62
2022-09-23T01:52:15.000Z,99.31
2022-09-23T01:53:15.000Z,98.90
2022-09-23T01:54:15.000Z,98.58
2022-09-23T01:55:15.000Z,98.52
2022-09-23T01:56:15.000Z,98.63
2022-09-23T01:57:15.000Z,98.73
2022-09-23T01:58:16.000Z,98.73
2022-09-23T01:59:16.000Z,98.83
2022-09-23T02:00:16.000Z,98.94
2022-09-23T02:01:16.000Z,99.04
2022-09-23T02:02:16.000Z,99.25
2022-09-23T02:03:16.000Z,99.35
2022-09-23T02:04:16.000Z,99.87
2022-09-23T02:05:16.000Z,99.99
2022-09-23T02:06:16.000Z,99.99
2022-09-23T02:07:16.000Z,99.99
2022-09-23T02:08:16.000Z,99.99
2022-09-23T02:09:16.000Z,99.99
2022-09-23T02:10:16.000Z,99.93
2022-09-23T02:11:16.000Z,99.46
2022-09-23T02:12:16.000Z,99.15
2022-09-23T02:13:16.000Z,98.88
2022-09-23T02:14:16.000Z,98.57
2022-09-23T02:15:16.000Z,98.47
2022-09-23T02:16:16.000Z,98.26
2022-09-23T02:17:16.000Z,98.16
2022-09-23T02:18:16.000Z,98.16
2022-09-23T02:19:16.000Z,98.10
2022-09-23T02:20:16.000Z,98.30
2022-09-23T02:21:17.000Z,98.61
2022-09-23T02:22:17.000Z,99.13
2022-09-23T02:23:17.000Z,99.24
2022-09-23T02:24:17.000Z,99.34
2022-09-23T02:25:17.000Z,99.24
2022-09-23T02:26:17.000Z,99.24
2022-09-23T02:27:17.000Z,99.34
2022-09-23T02:28:17.000Z,99.24
2022-09-23T02:29:17.000Z,99.34
2022-09-23T02:30:17.000Z,99.34
2022-09-23T02:31:17.000Z,99.34
2022-09-23T02:32:17.000Z,99.13
2022-09-23T02:33:17.000Z,99.13
2022-09-23T02:34:17.000Z,99.03
2022-09-23T02:35:17.000Z,98.93
2022-09-23T02:36:17.000Z,98.82
2022-09-23T02:37:17.000Z,98.86
2022-09-23T02:38:17.000Z,98.76
2022-09-23T02:39:17.000Z,98.76
2022-09-23T02:40:17.000Z,98.66
2022-09-23T02:41:17.000Z,98.76
2022-09-23T02:42:18.000Z,98.66
2022-09-23T02:43:18.000Z,98.66
2022-09-23T02:44:18.000Z,98.66
2022-09-23T02:45:18.000Z,98.76
2022-09-23T02:46:18.000Z,98.76
2022-09-23T02:47:18.000Z,98.76
2022-09-23T02:48:18.000Z,98.86
2022-09-23T02:49:18.000Z,98.86
2022-09-23T02:50:18.000Z,98.97
2022-09-23T02:51:18.000Z,99.28
2022-09-23T02:52:18.000Z,99.59
2022-09-23T02:53:18.000Z,99.70
2022-09-23T02:54:18.000Z,99.70
2022-09-23T02:55:18.000Z,99.80
2022-09-23T02:56:18.000Z,99.70
2022-09-23T02:57:18.000Z,99.70
2022-09-23T02:58:18.000Z,99.70
2022-09-23T02:59:18.000Z,99.70
2022-09-23T03:00:18.000Z,99.76
2022-09-23T03:01:18.000Z,99.86
2022-09-23T03:02:18.000Z,99.86
2022-09-23T03:03:19.000Z,99.99
2022-09-23T03:04:19.000Z,99.99
2022-09-23T03:05:19.000Z,99.99
2022-09-23T03:06:19.000Z,99.99
2022-09-23T03:07:19.000Z,99.99
2022-09-23T03:08:19.000Z,99.99
2022-09-23T03:09:19.000Z,99.99
2022-09-23T03:10:19.000Z,99.99
2022-09-23T03:11:19.000Z,99.99
2022-09-23T03:12:19.000Z,99.96
2022-09-23T03:13:19.000Z,99.86
2022-09-23T03:14:19.000Z,99.86
2022-09-23T03:15:19.000Z,99.76
2022-09-23T03:16:19.000Z,99.76
2022-09-23T03:17:19.000Z,99.65
2022-09-23T03:18:19.000Z,99.65
2022-09-23T03:19:19.000Z,99.70
2022-09-23T03:20:19.000Z,99.80
2022-09-23T03:21:20.000Z,99.91
2022-09-23T03:22:20.000Z,99.91
2022-09-23T03:23:20.000Z,99.99
2022-09-23T03:24:20.000Z,99.99
2022-09-23T03:25:20.000Z,99.99
2022-09-23T03:26:20.000Z,99.99
2022-09-23T03:27:20.000Z,99.99
2022-09-23T03:28:20.000Z,99.99
2022-09-23T03:29:20.000Z,99.99
2022-09-23T03:30:20.000Z,99.99
2022-09-23T03:31:20.000Z,99.99
2022-09-23T03:32:20.000Z,99.99
2022-09-23T03:33:20.000Z,99.99
2022-09-23T03:34:20.000Z,99.99
2022-09-23T03:35:20.000Z,99.99
2022-09-23T03:36:20.000Z,99.99
2022-09-23T03:37:20.000Z,99.99
2022-09-23T03:38:20.000Z,99.99
2022-09-23T03:39:21.000Z,99.99
2022-09-23T03:40:21.000Z,99.99
2022-09-23T03:41:21.000Z,99.99
2022-09-23T03:42:21.000Z,99.99
2022-09-23T03:43:21.000Z,99.99
2022-09-23T03:44:21.000Z,99.99
2022-09-23T03:45:21.000Z,99.99
2022-09-23T03:46:21.000Z,99.99
2022-09-23T03:47:21.000Z,99.99
2022-09-23T03:48:21.000Z,99.99
2022-09-23T03:49:21.000Z,99.99
2022-09-23T03:50:21.000Z,99.99
2022-09-23T03:51:21.000Z,99.99
2022-09-23T03:52:21.000Z,99.99
2022-09-23T03:53:21.000Z,99.99
2022-09-23T03:54:21.000Z,99.99
2022-09-23T03:55:21.000Z,99.99
2022-09-23T03:56:21.000Z,99.99
2022-09-23T03:57:22.000Z,99.99
2022-09-23T03:58:22.000Z,99.99
2022-09-23T03:59:22.000Z,99.99
2022-09-23T04:00:22.000Z,99.99
2022-09-23T04:01:22.000Z,99.99
2022-09-23T04:02:22.000Z,99.99
2022-09-23T04:03:22.000Z,99.99
2022-09-23T04:04:22.000Z,99.99
2022-09-23T04:05:22.000Z,99.99
2022-09-23T04:06:22.000Z,99.99
2022-09-23T04:07:22.000Z,99.99
2022-09-23T04:08:22.000Z,99.99
2022-09-23T04:09:22.000Z,99.99
2022-09-23T04:10:22.000Z,99.99
2022-09-23T04:11:22.000Z,99.99
2022-09-23T04:12:22.000Z,99.99
2022-09-23T04:13:22.000Z,99.99
2022-09-23T04:14:22.000Z,99.99
2022-09-23T04:15:23.000Z,99.99
2022-09-23T04:16:23.000Z,99.99
2022-09-23T04:17:23.000Z,99.99
2022-09-23T04:18:23.000Z,99.99
2022-09-23T04:19:23.000Z,99.99
2022-09-23T04:20:23.000Z,99.99
2022-09-23T04:21:23.000Z,99.99
2022-09-23T04:22:23.000Z,99.99
2022-09-23T04:23:23.000Z,99.99
2022-09-23T04:24:23.000Z,99.99
2022-09-23T04:25:23.000Z,99.99
2022-09-23T04:26:23.000Z,99.99
2022-09-23T04:27:23.000Z,99.99
2022-09-23T04:28:23.000Z,99.99
2022-09-23T04:29:23.000Z,99.99
2022-09-23T04:30:23.000Z,99.99
2022-09-23T04:31:23.000Z,99.99
2022-09-23T04:32:23.000Z,99.99
2022-09-23T04:33:24.000Z,99.99
2022-09-23T04:34:24.000Z,99.99
2022-09-23T04:35:24.000Z,99.99
2022-09-23T04:36:24.000Z,99.99
2022-09-23T04:37:24.000Z,99.99
2022-09-23T04:38:24.000Z,99.99
2022-09-23T04:39:24.000Z,99.99
2022-09-23T04:40:24.000Z,99.99
2022-09-23T04:41:24.000Z,99.99
2022-09-23T04:42:24.000Z,99.99
2022-09-23T04:43:24.000Z,99.99
2022-09-23T04:44:24.000Z,99.99
2022-09-23T04:45:24.000Z,99.99
2022-09-23T04:46:24.000Z,99.99
2022-09-23T04:47:24.000Z,99.99
2022-09-23T04:48:24.000Z,99.99
2022-09-23T04:49:24.000Z,99.99
2022-09-23T04:50:24.000Z,99.99
2022-09-23T04:51:25.000Z,99.99
2022-09-23T04:52:25.000Z,99.99
2022-09-23T04:53:25.000Z,99.99
2022-09-23T04:54:25.000Z,99.99
2022-09-23T04:55:25.000Z,99.99
2022-09-23T04:56:25.000Z,99.99
2022-09-23T04:57:25.000Z,99.99
2022-09-23T04:58:25.000Z,99.99
2022-09-23T04:59:25.000Z,99.99
2022-09-23T05:00:25.000Z,99.99
2022-09-23T05:01:25.000Z,99.99
2022-09-23T05:02:25.000Z,99.99
2022-09-23T05:03:25.000Z,99.99
2022-09-23T05:04:25.000Z,99.99
2022-09-23T05:05:25.000Z,99.99
2022-09-23T05:06:25.000Z,99.99
2022-09-23T05:07:25.000Z,99.99
2022-09-23T05:08:25.000Z,99.99
2022-09-23T05:09:26.000Z,99.99
2022-09-23T05:10:26.000Z,99.99
2022-09-23T05:11:26.000Z,99.99
2022-09-23T05:12:26.000Z,99.99
2022-09-23T05:13:26.000Z,99.99
2022-09-23T05:14:26.000Z,99.99
2022-09-23T05:15:26.000Z,99.99
2022-09-23T05:16:26.000Z,99.99
2022-09-23T05:17:26.000Z,99.99
2022-09-23T05:18:26.000Z,99.99
2022-09-23T05:19:26.000Z,99.99
2022-09-23T05:20:26.000Z,99.99
2022-09-23T05:21:26.000Z,99.99
2022-09-23T05:22:26.000Z,99.99
2022-09-23T05:23:26.000Z,99.99
2022-09-23T05:24:26.000Z,99.99
2022-09-23T05:25:26.000Z,99.99
2022-09-23T05:26:26.000Z,99.99
2022-09-23T05:27:26.000Z,99.99
2022-09-23T05:28:26.000Z,99.99
2022-09-23T05:29:26.000Z,99.99
2022-09-23T05:30:26.000Z,99.99
2022-09-23T05:31:27.000Z,99.99
2022-09-23T05:32:27.000Z,99.99
2022-09-23T05:33:27.000Z,99.99
2022-09-23T05:34:27.000Z,99.99
2022-09-23T05:35:27.000Z,99.99
2022-09-23T05:36:27.000Z,99.99
2022-09-23T05:37:27.000Z,99.99
2022-09-23T05:38:27.000Z,99.99
2022-09-23T05:39:27.000Z,99.99
2022-09-23T05:40:27.000Z,99.99
2022-09-23T05:41:27.000Z,99.99
2022-09-23T05:42:27.000Z,99.99
2022-09-23T05:43:27.000Z,99.99
2022-09-23T05:44:27.000Z,99.99
2022-09-23T05:45:27.000Z,99.99
2022-09-23T05:46:27.000Z,99.99
2022-09-23T05:47:27.000Z,99.99
2022-09-23T05:48:27.000Z,99.99
2022-09-23T05:49:27.000Z,99.99
2022-09-23T05:50:27.000Z,99.99
2022-09-23T05:51:27.000Z,99.99
2022-09-23T05:52:27.000Z,99.99
2022-09-23T05:53:27.000Z,99.99
2022-09-23T05:54:27.000Z,99.99
2022-09-23T05:55:28.000Z,99.99
2022-09-23T05:56:28.000Z,99.99
2022-09-23T05:57:28.000Z,99.99
2022-09-23T05:58:28.000Z,99.99
2022-09-23T05:59:28.000Z,99.99
2022-09-23T06:00:28.000Z,99.99
2022-09-23T06:01:28.000Z,99.99
2022-09-23T06:02:28.000Z,99.99
2022-09-23T06:03:28.000Z,99.99
2022-09-23T06:04:28.000Z,99.99
2022-09-23T06:05:28.000Z,99.99
2022-09-23T06:06:28.000Z,99.99
2022-09-23T06:07:28.000Z,99.99
2022-09-23T06:08:28.000Z,99.99
2022-09-23T06:09:28.000Z,99.99
2022-09-23T06:10:28.000Z,99.99
2022-09-23T06:11:28.000Z,99.99
2022-09-23T06:12:28.000Z,99.99
2022-09-23T06:13:28.000Z,99.99
2022-09-23T06:14:28.000Z,99.99
2022-09-23T06:15:28.000Z,99.99
2022-09-23T06:16:28.000Z,99.99
2022-09-23T06:17:28.000Z,99.99
2022-09-23T06:18:28.000Z,99.99
2022-09-23T06:19:28.000Z,99.99
2022-09-23T06:20:29.000Z,99.99
2022-09-23T06:27:47.000Z,99.99
2022-09-23T06:27:47.000Z,99.99
2022-09-23T06:28:47.000Z,99.99
2022-09-23T06:29:47.000Z,99.99
2022-09-23T06:30:47.000Z,99.99
2022-09-23T06:31:47.000Z,99.99
2022-09-23T06:32:46.000Z,99.99
2022-09-23T06:33:46.000Z,99.99
2022-09-23T06:34:46.000Z,99.99
2022-09-23T06:35:46.000Z,99.99
2022-09-23T06:36:46.000Z,99.99
2022-09-23T06:37:46.000Z,99.99
2022-09-23T06:38:46.000Z,99.99
2022-09-23T06:39:46.000Z,99.99
2022-09-23T06:40:46.000Z,99.99
2022-09-23T06:41:46.000Z,99.99
2022-09-23T06:42:46.000Z,99.99
2022-09-23T06:43:46.000Z,99.99
2022-09-23T06:44:46.000Z,99.99
2022-09-23T06:45:46.000Z,99.99
2022-09-23T06:46:46.000Z,99.99
2022-09-23T06:47:46.000Z,99.99
2022-09-23T06:48:46.000Z,99.99
2022-09-23T06:49:46.000Z,99.99
2022-09-23T06:50:46.000Z,99.99
2022-09-23T06:51:46.000Z,99.99
2022-09-23T06:52:46.000Z,99.99
2022-09-23T06:53:46.000Z,99.99
2022-09-23T06:54:46.000Z,99.86
2022-09-23T06:55:46.000Z,99.51
2022-09-23T06:56:46.000Z,99.09
2022-09-23T06:57:46.000Z,98.47
2022-09-23T06:58:46.000Z,97.96
2022-09-23T06:59:46.000Z,97.71
2022-09-23T07:00:46.000Z,97.61
2022-09-23T07:01:46.000Z,97.61
2022-09-23T07:02:46.000Z,96.73
2022-09-23T07:03:46.000Z,96.02
2022-09-23T07:04:46.000Z,96.02
2022-09-23T07:05:46.000Z,95.92
2022-09-23T07:06:46.000Z,95.61
2022-09-23T07:07:46.000Z,95.36
2022-09-23T07:08:46.000Z,95.46
2022-09-23T07:09:46.000Z,95.15
2022-09-23T07:10:46.000Z,95.15
2022-09-23T07:11:46.000Z,94.70
2022-09-23T07:12:46.000Z,95.01
2022-09-23T07:13:46.000Z,94.90
2022-09-23T07:14:46.000Z,94.80
2022-09-23T07:15:46.000Z,94.59
2022-09-23T07:16:46.000Z,93.77
2022-09-23T07:17:46.000Z,93.63
2022-09-23T07:18:46.000Z,92.80
2022-09-23T07:19:46.000Z,92.29
2022-09-23T07:20:46.000Z,92.55
2022-09-23T07:21:46.000Z,91.94
2022-09-23T07:22:46.000Z,92.25
2022-09-23T07:23:46.000Z,93.07
2022-09-23T07:24:45.000Z,92.21
2022-09-23T07:25:45.000Z,92.72
2022-09-23T07:26:45.000Z,92.82
2022-09-23T07:27:45.000Z,92.72
2022-09-23T07:28:45.000Z,92.31
2022-09-23T07:29:45.000Z,90.67
2022-09-23T07:30:45.000Z,90.56
2022-09-23T07:31:45.000Z,90.83
2022-09-23T07:32:45.000Z,91.35
2022-09-23T07:33:45.000Z,91.55
2022-09-23T07:34:45.000Z,90.17
2022-09-23T07:35:45.000Z,89.66
2022-09-23T07:36:45.000Z,90.28
2022-09-23T07:37:45.000Z,89.25
2022-09-23T07:38:45.000Z,88.53
2022-09-23T07:39:45.000Z,89.00
2022-09-23T07:40:45.000Z,88.80
2022-09-23T07:41:45.000Z,89.11
2022-09-23T07:42:45.000Z,88.80
2022-09-23T07:43:45.000Z,90.03
2022-09-23T07:44:45.000Z,90.03
2022-09-23T07:45:45.000Z,88.65
2022-09-23T07:46:45.000Z,87.32
2022-09-23T07:47:45.000Z,86.71
2022-09-23T07:48:45.000Z,87.29
2022-09-23T07:49:45.000Z,87.59
2022-09-23T07:50:44.000Z,87.18
2022-09-23T07:51:44.000Z,86.77
2022-09-23T07:52:44.000Z,86.98
2022-09-23T07:53:44.000Z,86.67
2022-09-23T07:54:44.000Z,86.12
2022-09-23T07:55:44.000Z,83.36
2022-09-23T07:56:44.000Z,82.95
2022-09-23T07:57:44.000Z,81.93
2022-09-23T07:58:44.000Z,82.13
2022-09-23T07:59:44.000Z,81.62
2022-09-23T08:00:44.000Z,81.17
2022-09-23T08:01:44.000Z,81.48
2022-09-23T08:02:44.000Z,81.58
2022-09-23T08:03:44.000Z,80.66
2022-09-23T08:04:44.000Z,81.27
2022-09-23T08:05:44.000Z,80.46
2022-09-23T08:06:44.000Z,79.84
2022-09-23T08:07:44.000Z,79.70
2022-09-23T08:08:44.000Z,80.11
2022-09-23T08:09:44.000Z,80.01
2022-09-23T08:10:44.000Z,79.29
2022-09-23T08:11:44.000Z,79.70
2022-09-23T08:12:44.000Z,79.87
2022-09-23T08:13:43.000Z,78.03
2022-09-23T08:14:43.000Z,79.25
2022-09-23T08:15:43.000Z,78.85
2022-09-23T08:16:43.000Z,77.62
2022-09-23T08:17:43.000Z,77.72
2022-09-23T08:18:43.000Z,77.48
2022-09-23T08:19:43.000Z,78.30
2022-09-23T08:20:43.000Z,78.41
2022-09-23T08:21:43.000Z,79.93
2022-09-23T08:22:43.000Z,80.14
2022-09-23T08:23:43.000Z,78.06
2022-09-23T08:24:43.000Z,77.14
2022-09-23T08:25:43.000Z,77.34
2022-09-23T08:26:43.000Z,78.16
2022-09-23T08:27:43.000Z,77.82
2022-09-23T08:28:43.000Z,77.62
2022-09-23T08:29:43.000Z,77.72
2022-09-23T08:30:43.000Z,77.41
2022-09-23T08:31:43.000Z,77.11
2022-09-23T08:32:42.000Z,77.37
2022-09-23T08:33:42.000Z,77.37
2022-09-23T08:34:42.000Z,74.83
2022-09-23T08:35:42.000Z,74.21
2022-09-23T08:36:42.000Z,74.62
2022-09-23T08:37:42.000Z,74.90
2022-09-23T08:38:42.000Z,74.90
2022-09-23T08:39:42.000Z,76.12
2022-09-23T08:40:42.000Z,74.79
2022-09-23T08:41:42.000Z,74.69
2022-09-23T08:42:42.000Z,74.90
2022-09-23T08:43:42.000Z,76.53
2022-09-23T08:44:42.000Z,76.39
2022-09-23T08:45:42.000Z,75.27
2022-09-23T08:46:42.000Z,75.88
2022-09-23T08:47:42.000Z,75.98
2022-09-23T08:48:42.000Z,76.18
2022-09-23T08:49:41.000Z,74.45
2022-09-23T08:50:41.000Z,74.76
2022-09-23T08:51:41.000Z,74.32
2022-09-23T08:52:41.000Z,74.52
2022-09-23T08:53:41.000Z,75.13
2022-09-23T08:54:41.000Z,73.30
2022-09-23T08:55:41.000Z,72.08
2022-09-23T08:56:41.000Z,71.56
2022-09-23T08:57:41.000Z,72.55
2022-09-23T08:58:41.000Z,73.06
2022-09-23T08:59:41.000Z,71.43
2022-09-23T09:00:41.000Z,70.82
2022-09-23T09:01:41.000Z,72.04
2022-09-23T09:01:41.000Z,72.04
2022-09-23T09:02:41.000Z,71.94
2022-09-23T09:02:41.000Z,71.94
2022-09-23T09:03:41.000Z,71.64
2022-09-23T09:03:41.000Z,71.64
2022-09-23T09:04:40.000Z,73.77
2022-09-23T09:04:40.000Z,73.77
2022-09-23T09:05:40.000Z,71.84
2022-09-23T09:05:40.000Z,71.84
2022-09-23T09:06:40.000Z,73.06
2022-09-23T09:07:40.000Z,73.33
2022-09-23T09:08:40.000Z,72.62
2022-09-23T09:09:40.000Z,72.21
2022-09-23T09:10:40.000Z,72.82
2022-09-23T09:11:40.000Z,71.19
2022-09-23T09:11:40.000Z,71.19
2022-09-23T09:12:40.000Z,72.82
2022-09-23T09:12:40.000Z,72.82
2022-09-23T09:13:40.000Z,71.40
2022-09-23T09:13:40.000Z,71.40
2022-09-23T09:14:40.000Z,70.28
2022-09-23T09:14:40.000Z,70.28
2022-09-23T09:15:40.000Z,70.04
2022-09-23T09:15:40.000Z,70.04
2022-09-23T09:16:40.000Z,69.94
2022-09-23T09:17:40.000Z,69.77
2022-09-23T09:18:39.000Z,69.84
2022-09-23T09:19:39.000Z,70.55
2022-09-23T09:20:39.000Z,70.86
2022-09-23T09:21:39.000Z,69.13
2022-09-23T09:22:39.000Z,67.30
2022-09-23T09:23:39.000Z,69.33
2022-09-23T09:24:39.000Z,69.09
2022-09-23T09:25:39.000Z,69.91
2022-09-23T09:26:39.000Z,68.99
2022-09-23T09:27:39.000Z,70.11
2022-09-23T09:28:39.000Z,70.62
2022-09-23T09:29:39.000Z,68.69
2022-09-23T09:30:39.000Z,69.67
2022-09-23T09:31:38.000Z,69.78
2022-09-23T09:32:38.000Z,67.94
2022-09-23T09:33:38.000Z,70.08
2022-09-23T09:34:38.000Z,68.35
2022-09-23T09:35:38.000Z,69.47
2022-09-23T09:36:38.000Z,69.98
2022-09-23T09:37:38.000Z,68.52
2022-09-23T09:38:38.000Z,69.23
2022-09-23T09:39:38.000Z,70.55
2022-09-23T09:40:38.000Z,69.03
2022-09-23T09:41:38.000Z,66.69
2022-09-23T09:42:38.000Z,67.17
2022-09-23T09:43:38.000Z,68.19
2022-09-23T09:44:37.000Z,67.17
2022-09-23T09:45:37.000Z,67.17
2022-09-23T09:46:37.000Z,68.49
2022-09-23T09:47:37.000Z,66.77
2022-09-23T09:48:37.000Z,67.58
2022-09-23T09:49:37.000Z,67.85
2022-09-23T09:50:37.000Z,67.75
2022-09-23T09:51:37.000Z,65.31
2022-09-23T09:52:37.000Z,66.83
2022-09-23T09:53:37.000Z,65.01
2022-09-23T09:54:37.000Z,66.23
2022-09-23T09:55:37.000Z,66.43
2022-09-23T09:56:36.000Z,65.79
2022-09-23T09:57:36.000Z,65.28
2022-09-23T09:58:36.000Z,65.79
2022-09-23T09:59:36.000Z,65.28
2022-09-23T10:00:36.000Z,65.79
2022-09-23T10:01:36.000Z,65.48
2022-09-23T10:02:36.000Z,66.60
2022-09-23T10:03:36.000Z,65.59
2022-09-23T10:04:36.000Z,65.36
2022-09-23T10:05:36.000Z,64.24
2022-09-23T10:06:36.000Z,63.83
2022-09-23T10:07:35.000Z,65.36
2022-09-23T10:08:35.000Z,67.18
2022-09-23T10:09:35.000Z,66.67
2022-09-23T10:10:35.000Z,65.45
2022-09-23T10:11:35.000Z,63.63
2022-09-23T10:12:35.000Z,64.54
2022-09-23T10:13:35.000Z,64.72
2022-09-23T10:14:35.000Z,63.90
2022-09-23T10:15:35.000Z,65.02
2022-09-23T10:16:35.000Z,65.73
2022-09-23T10:17:35.000Z,65.42
2022-09-23T10:18:34.000Z,65.53
2022-09-23T10:19:34.000Z,63.30
2022-09-23T10:20:34.000Z,63.30
2022-09-23T10:21:34.000Z,63.50
2022-09-23T10:22:34.000Z,65.12
2022-09-23T10:23:34.000Z,64.41
2022-09-23T10:24:34.000Z,64.72
2022-09-23T10:25:34.000Z,64.51
2022-09-23T10:26:34.000Z,66.33
2022-09-23T10:27:34.000Z,64.48
2022-09-23T10:28:34.000Z,63.67
2022-09-23T10:29:33.000Z,63.78
2022-09-23T10:30:33.000Z,63.98
2022-09-23T10:31:33.000Z,64.28
2022-09-23T10:32:33.000Z,64.79
2022-09-23T10:33:33.000Z,64.45
2022-09-23T10:34:33.000Z,62.23
2022-09-23T10:35:33.000Z,61.82
2022-09-23T10:36:33.000Z,61.92
2022-09-23T10:37:33.000Z,62.53
2022-09-23T10:38:33.000Z,61.52
2022-09-23T10:39:32.000Z,62.84
2022-09-23T10:40:32.000Z,62.73
2022-09-23T10:41:32.000Z,63.04
2022-09-23T10:42:32.000Z,63.54
2022-09-23T10:43:32.000Z,62.53
2022-09-23T10:44:32.000Z,62.73
2022-09-23T10:45:32.000Z,63.75
2022-09-23T10:46:32.000Z,63.75
2022-09-23T10:47:32.000Z,65.13
2022-09-23T10:48:32.000Z,64.12
2022-09-23T10:49:31.000Z,62.90
2022-09-23T10:50:31.000Z,62.19
2022-09-23T10:51:31.000Z,63.01
2022-09-23T10:52:31.000Z,62.50
2022-09-23T10:53:31.000Z,62.60
2022-09-23T10:54:31.000Z,63.71
2022-09-23T10:55:31.000Z,63.81
2022-09-23T10:56:31.000Z,61.08
2022-09-23T10:57:31.000Z,62.19
2022-09-23T10:58:30.000Z,61.69
2022-09-23T10:59:30.000Z,63.71
2022-09-23T11:00:30.000Z,62.70
2022-09-23T11:01:30.000Z,63.10
2022-09-23T11:02:30.000Z,61.49
2022-09-23T11:03:30.000Z,61.99
2022-09-23T11:04:30.000Z,62.77
2022-09-23T11:05:30.000Z,61.76
2022-09-23T11:06:30.000Z,60.75
2022-09-23T11:07:30.000Z,60.14
2022-09-23T11:08:29.000Z,61.56
2022-09-23T11:09:29.000Z,61.66
2022-09-23T11:10:29.000Z,62.77
2022-09-23T11:11:29.000Z,63.99
2022-09-23T11:12:29.000Z,62.77
2022-09-23T11:13:29.000Z,63.08
2022-09-23T11:14:29.000Z,64.70
2022-09-23T11:15:29.000Z,62.98
2022-09-23T11:16:29.000Z,60.65
2022-09-23T11:17:29.000Z,62.98
2022-09-23T11:18:28.000Z,62.16
2022-09-23T11:19:28.000Z,62.77
2022-09-23T11:20:28.000Z,58.73
2022-09-23T11:21:28.000Z,61.25
2022-09-23T11:22:28.000Z,60.65
2022-09-23T11:23:28.000Z,61.66
2022-09-23T11:24:28.000Z,62.07
2022-09-23T11:25:28.000Z,61.66
2022-09-23T11:26:28.000Z,62.07
2022-09-23T11:27:28.000Z,62.64
2022-09-23T11:28:27.000Z,62.24
2022-09-23T11:29:27.000Z,64.67
2022-09-23T11:30:27.000Z,61.73
2022-09-23T11:31:27.000Z,61.53
2022-09-23T11:32:27.000Z,60.82
2022-09-23T11:33:27.000Z,59.21
2022-09-23T11:34:27.000Z,59.71
2022-09-23T11:35:27.000Z,58.30
2022-09-23T11:36:27.000Z,60.32
2022-09-23T11:37:26.000Z,59.91
2022-09-23T11:38:26.000Z,60.32
2022-09-23T11:39:26.000Z,60.62
2022-09-23T11:40:26.000Z,61.33
2022-09-23T11:41:26.000Z,62.14
2022-09-23T11:42:26.000Z,60.22
2022-09-23T11:43:26.000Z,62.24
2022-09-23T11:44:26.000Z,61.23
2022-09-23T11:45:26.000Z,61.03
2022-09-23T11:46:26.000Z,62.64
2022-09-23T11:47:25.000Z,61.53
2022-09-23T11:48:25.000Z,59.89
2022-09-23T11:49:25.000Z,57.29
2022-09-23T11:50:25.000Z,59.51
2022-09-23T11:51:25.000Z,57.87
2022-09-23T11:52:25.000Z,59.81
2022-09-23T11:53:25.000Z,58.70
2022-09-23T11:54:25.000Z,58.80
2022-09-23T11:55:25.000Z,58.60
2022-09-23T11:56:24.000Z,58.60
2022-09-23T11:56:24.000Z,58.60
2022-09-23T11:57:24.000Z,59.14
2022-09-23T11:57:24.000Z,59.14
2022-09-23T11:58:24.000Z,58.12
2022-09-23T11:58:24.000Z,58.12
2022-09-23T11:59:24.000Z,59.74
2022-09-23T11:59:24.000Z,59.74
2022-09-23T12:00:24.000Z,60.96
2022-09-23T12:00:24.000Z,60.96
2022-09-23T12:01:24.000Z,57.52
2022-09-23T12:02:24.000Z,58.83
2022-09-23T12:03:24.000Z,62.30
2022-09-23T12:04:24.000Z,61.08
2022-09-23T12:05:24.000Z,60.27
2022-09-23T12:06:23.000Z,63.21
2022-09-23T12:07:23.000Z,60.65
2022-09-23T12:08:23.000Z,61.87
2022-09-23T12:09:23.000Z,61.05
2022-09-23T12:10:23.000Z,61.25
2022-09-23T12:11:23.000Z,63.35
2022-09-23T12:12:23.000Z,63.45
2022-09-23T12:13:23.000Z,59.99
2022-09-23T12:14:23.000Z,59.99
2022-09-23T12:15:22.000Z,58.67
2022-09-23T12:16:22.000Z,59.89
2022-09-23T12:16:22.000Z,59.89
2022-09-23T12:17:22.000Z,60.57
2022-09-23T12:17:22.000Z,60.57
2022-09-23T12:18:22.000Z,61.07
2022-09-23T12:18:22.000Z,61.07
2022-09-23T12:19:22.000Z,60.66
2022-09-23T12:19:22.000Z,60.66
2022-09-23T12:20:22.000Z,60.57
2022-09-23T12:20:22.000Z,60.57
2022-09-23T12:21:22.000Z,61.17
2022-09-23T12:22:22.000Z,61.47
2022-09-23T12:23:22.000Z,60.06
2022-09-23T12:24:22.000Z,58.25
2022-09-23T12:25:21.000Z,57.84
2022-09-23T12:26:21.000Z,60.06
2022-09-23T12:27:21.000Z,60.74
2022-09-23T12:28:21.000Z,59.22
2022-09-23T12:29:21.000Z,57.81
2022-09-23T12:30:21.000Z,56.98
2022-09-23T12:31:21.000Z,58.69
2022-09-23T12:32:21.000Z,57.68
2022-09-23T12:33:21.000Z,59.90
2022-09-23T12:34:20.000Z,60.48
2022-09-23T12:35:20.000Z,58.47
2022-09-23T12:36:20.000Z,56.15
2022-09-23T12:37:20.000Z,59.07